sensor_id;sensor_type;location;lat;lon;timestamp;P1;durP1;ratioP1;P2;durP2;ratioP2
51614;SDS011;37695;52.960;6.188;2023-04-01T00:01:03;5.90;;;2.70;;
51614;SDS011;37695;52.960;6.188;2023-04-01T00:03:30;4.25;;;2.63;;
51614;SDS011;37695;52.960;6.188;2023-04-01T00:05:57;5.40;;;2.70;;
51614;SDS011;37695;52.960;6.188;2023-04-01T00:08:23;3.33;;;2.35;;
51614;SDS011;37695;52.960;6.188;2023-04-01T00:10:50;8.20;;;2.65;;
51614;SDS011;37695;52.960;6.188;2023-04-01T00:13:15;3.92;;;2.20;;
51614;SDS011;37695;52.960;6.188;2023-04-01T00:15:41;4.93;;;2.88;;
51614;SDS011;37695;52.960;6.188;2023-04-01T00:18:08;4.45;;;2.90;;
51614;SDS011;37695;52.960;6.188;2023-04-01T00:20:33;4.00;;;2.83;;
51614;SDS011;37695;52.960;6.188;2023-04-01T00:22:59;4.90;;;2.85;;
51614;SDS011;37695;52.960;6.188;2023-04-01T00:25:25;6.90;;;3.03;;
51614;SDS011;37695;52.960;6.188;2023-04-01T00:27:50;3.38;;;2.40;;
51614;SDS011;37695;52.960;6.188;2023-04-01T00:30:16;4.07;;;2.63;;
51614;SDS011;37695;52.960;6.188;2023-04-01T00:32:42;4.28;;;2.78;;
51614;SDS011;37695;52.960;6.188;2023-04-01T00:35:08;4.20;;;2.50;;
51614;SDS011;37695;52.960;6.188;2023-04-01T00:37:35;4.20;;;2.60;;
51614;SDS011;37695;52.960;6.188;2023-04-01T00:40:03;3.35;;;2.30;;
51614;SDS011;37695;52.960;6.188;2023-04-01T00:42:30;3.50;;;2.25;;
51614;SDS011;37695;52.960;6.188;2023-04-01T00:44:56;3.15;;;2.20;;
51614;SDS011;37695;52.960;6.188;2023-04-01T00:47:25;2.40;;;2.00;;
51614;SDS011;37695;52.960;6.188;2023-04-01T00:49:52;2.88;;;2.10;;
51614;SDS011;37695;52.960;6.188;2023-04-01T00:52:23;2.00;;;1.80;;
51614;SDS011;37695;52.960;6.188;2023-04-01T00:54:53;3.22;;;2.00;;
51614;SDS011;37695;52.960;6.188;2023-04-01T00:57:34;2.60;;;2.08;;
51614;SDS011;37695;52.960;6.188;2023-04-01T01:00:03;3.83;;;2.13;;
51614;SDS011;37695;52.960;6.188;2023-04-01T01:02:32;3.22;;;1.95;;
51614;SDS011;37695;52.960;6.188;2023-04-01T01:04:59;2.45;;;1.83;;
51614;SDS011;37695;52.960;6.188;2023-04-01T01:07:34;6.72;;;2.08;;
51614;SDS011;37695;52.960;6.188;2023-04-01T01:10:20;2.63;;;1.98;;
51614;SDS011;37695;52.960;6.188;2023-04-01T01:13:05;3.08;;;2.22;;
51614;SDS011;37695;52.960;6.188;2023-04-01T01:15:46;4.22;;;2.00;;
51614;SDS011;37695;52.960;6.188;2023-04-01T01:21:12;2.90;;;2.05;;
51614;SDS011;37695;52.960;6.188;2023-04-01T01:26:52;4.22;;;2.17;;
51614;SDS011;37695;52.960;6.188;2023-04-01T01:32:35;2.75;;;1.90;;
51614;SDS011;37695;52.960;6.188;2023-04-01T01:35:22;4.00;;;2.10;;
51614;SDS011;37695;52.960;6.188;2023-04-01T01:37:50;4.65;;;2.05;;
51614;SDS011;37695;52.960;6.188;2023-04-01T01:40:19;3.95;;;2.00;;
51614;SDS011;37695;52.960;6.188;2023-04-01T01:42:50;3.22;;;2.05;;
51614;SDS011;37695;52.960;6.188;2023-04-01T01:45:20;2.63;;;2.00;;
51614;SDS011;37695;52.960;6.188;2023-04-01T01:47:48;2.50;;;1.92;;
51614;SDS011;37695;52.960;6.188;2023-04-01T01:50:15;3.72;;;1.90;;
51614;SDS011;37695;52.960;6.188;2023-04-01T01:52:41;3.55;;;2.03;;
51614;SDS011;37695;52.960;6.188;2023-04-01T01:55:23;3.15;;;1.75;;
51614;SDS011;37695;52.960;6.188;2023-04-01T02:00:18;1.77;;;1.60;;
51614;SDS011;37695;52.960;6.188;2023-04-01T02:02:46;2.00;;;1.55;;
51614;SDS011;37695;52.960;6.188;2023-04-01T02:05:20;4.30;;;1.80;;
51614;SDS011;37695;52.960;6.188;2023-04-01T02:07:51;2.25;;;1.80;;
51614;SDS011;37695;52.960;6.188;2023-04-01T02:10:25;2.17;;;1.70;;
51614;SDS011;37695;52.960;6.188;2023-04-01T02:12:54;3.15;;;1.75;;
51614;SDS011;37695;52.960;6.188;2023-04-01T02:15:24;2.88;;;1.60;;
51614;SDS011;37695;52.960;6.188;2023-04-01T02:17:52;2.00;;;1.50;;
51614;SDS011;37695;52.960;6.188;2023-04-01T02:20:19;2.28;;;1.20;;
51614;SDS011;37695;52.960;6.188;2023-04-01T02:22:49;1.23;;;1.13;;
51614;SDS011;37695;52.960;6.188;2023-04-01T02:25:21;1.00;;;0.90;;
51614;SDS011;37695;52.960;6.188;2023-04-01T02:27:58;1.52;;;1.00;;
51614;SDS011;37695;52.960;6.188;2023-04-01T02:30:25;1.00;;;0.90;;
51614;SDS011;37695;52.960;6.188;2023-04-01T02:32:54;1.17;;;0.88;;
51614;SDS011;37695;52.960;6.188;2023-04-01T02:35:21;1.02;;;0.93;;
51614;SDS011;37695;52.960;6.188;2023-04-01T02:37:48;1.55;;;0.90;;
51614;SDS011;37695;52.960;6.188;2023-04-01T02:40:16;1.08;;;1.00;;
51614;SDS011;37695;52.960;6.188;2023-04-01T02:42:42;0.95;;;0.80;;
51614;SDS011;37695;52.960;6.188;2023-04-01T02:45:08;0.98;;;0.90;;
51614;SDS011;37695;52.960;6.188;2023-04-01T02:47:34;1.13;;;1.02;;
51614;SDS011;37695;52.960;6.188;2023-04-01T02:50:00;1.10;;;1.00;;
51614;SDS011;37695;52.960;6.188;2023-04-01T02:52:26;1.48;;;1.00;;
51614;SDS011;37695;52.960;6.188;2023-04-01T02:54:53;2.40;;;1.20;;
51614;SDS011;37695;52.960;6.188;2023-04-01T02:57:19;0.95;;;0.88;;
51614;SDS011;37695;52.960;6.188;2023-04-01T02:59:45;0.70;;;0.70;;
51614;SDS011;37695;52.960;6.188;2023-04-01T03:02:10;1.73;;;1.10;;
51614;SDS011;37695;52.960;6.188;2023-04-01T03:04:36;0.90;;;0.90;;
51614;SDS011;37695;52.960;6.188;2023-04-01T03:07:01;1.70;;;0.90;;
51614;SDS011;37695;52.960;6.188;2023-04-01T03:09:27;1.10;;;0.90;;
51614;SDS011;37695;52.960;6.188;2023-04-01T03:11:53;0.90;;;0.90;;
51614;SDS011;37695;52.960;6.188;2023-04-01T03:14:19;3.33;;;0.98;;
51614;SDS011;37695;52.960;6.188;2023-04-01T03:16:45;1.25;;;0.80;;
51614;SDS011;37695;52.960;6.188;2023-04-01T03:19:10;0.80;;;0.80;;
51614;SDS011;37695;52.960;6.188;2023-04-01T03:21:36;1.25;;;1.00;;
51614;SDS011;37695;52.960;6.188;2023-04-01T03:24:02;0.70;;;0.70;;
51614;SDS011;37695;52.960;6.188;2023-04-01T03:26:27;1.63;;;1.00;;
51614;SDS011;37695;52.960;6.188;2023-04-01T03:28:53;0.90;;;0.90;;
51614;SDS011;37695;52.960;6.188;2023-04-01T03:31:20;1.02;;;1.00;;
51614;SDS011;37695;52.960;6.188;2023-04-01T03:33:46;1.25;;;1.15;;
51614;SDS011;37695;52.960;6.188;2023-04-01T03:36:12;1.50;;;1.30;;
51614;SDS011;37695;52.960;6.188;2023-04-01T03:38:38;2.60;;;1.00;;
51614;SDS011;37695;52.960;6.188;2023-04-01T03:41:05;1.50;;;1.27;;
51614;SDS011;37695;52.960;6.188;2023-04-01T03:43:31;7.75;;;1.40;;
51614;SDS011;37695;52.960;6.188;2023-04-01T03:45:57;3.63;;;1.52;;
51614;SDS011;37695;52.960;6.188;2023-04-01T03:48:23;1.50;;;1.27;;
51614;SDS011;37695;52.960;6.188;2023-04-01T03:50:50;2.28;;;1.50;;
51614;SDS011;37695;52.960;6.188;2023-04-01T03:53:16;1.88;;;1.40;;
51614;SDS011;37695;52.960;6.188;2023-04-01T03:55:42;2.17;;;1.60;;
51614;SDS011;37695;52.960;6.188;2023-04-01T03:58:08;3.70;;;1.80;;
51614;SDS011;37695;52.960;6.188;2023-04-01T04:00:34;2.58;;;1.70;;
51614;SDS011;37695;52.960;6.188;2023-04-01T04:02:59;2.65;;;1.60;;
51614;SDS011;37695;52.960;6.188;2023-04-01T04:05:25;2.83;;;1.52;;
51614;SDS011;37695;52.960;6.188;2023-04-01T04:07:51;1.40;;;1.30;;
51614;SDS011;37695;52.960;6.188;2023-04-01T04:10:18;1.83;;;1.50;;
51614;SDS011;37695;52.960;6.188;2023-04-01T04:12:44;1.63;;;1.15;;
51614;SDS011;37695;52.960;6.188;2023-04-01T04:15:10;1.58;;;1.17;;
51614;SDS011;37695;52.960;6.188;2023-04-01T04:17:35;1.77;;;1.02;;
51614;SDS011;37695;52.960;6.188;2023-04-01T04:20:01;2.90;;;1.05;;
51614;SDS011;37695;52.960;6.188;2023-04-01T04:22:27;3.15;;;1.05;;
51614;SDS011;37695;52.960;6.188;2023-04-01T04:24:53;0.95;;;0.90;;
51614;SDS011;37695;52.960;6.188;2023-04-01T04:27:19;1.70;;;1.10;;
51614;SDS011;37695;52.960;6.188;2023-04-01T04:29:44;1.20;;;1.10;;
51614;SDS011;37695;52.960;6.188;2023-04-01T04:32:10;1.23;;;0.95;;
51614;SDS011;37695;52.960;6.188;2023-04-01T04:34:36;4.72;;;1.35;;
51614;SDS011;37695;52.960;6.188;2023-04-01T04:37:01;1.95;;;1.23;;
51614;SDS011;37695;52.960;6.188;2023-04-01T04:39:27;1.48;;;1.23;;
51614;SDS011;37695;52.960;6.188;2023-04-01T04:41:52;1.45;;;1.10;;
51614;SDS011;37695;52.960;6.188;2023-04-01T04:44:18;1.30;;;1.10;;
51614;SDS011;37695;52.960;6.188;2023-04-01T04:46:44;1.27;;;1.17;;
51614;SDS011;37695;52.960;6.188;2023-04-01T04:49:09;2.60;;;1.30;;
51614;SDS011;37695;52.960;6.188;2023-04-01T04:51:35;2.10;;;1.30;;
51614;SDS011;37695;52.960;6.188;2023-04-01T04:54:01;2.72;;;1.85;;
51614;SDS011;37695;52.960;6.188;2023-04-01T04:56:27;3.03;;;1.98;;
51614;SDS011;37695;52.960;6.188;2023-04-01T04:58:53;3.60;;;2.35;;
51614;SDS011;37695;52.960;6.188;2023-04-01T05:01:19;3.22;;;2.30;;
51614;SDS011;37695;52.960;6.188;2023-04-01T05:03:45;3.67;;;2.65;;
51614;SDS011;37695;52.960;6.188;2023-04-01T05:06:11;3.55;;;2.35;;
51614;SDS011;37695;52.960;6.188;2023-04-01T05:08:39;4.35;;;2.78;;
51614;SDS011;37695;52.960;6.188;2023-04-01T05:11:07;4.45;;;3.00;;
51614;SDS011;37695;52.960;6.188;2023-04-01T05:13:43;4.82;;;3.42;;
51614;SDS011;37695;52.960;6.188;2023-04-01T05:16:13;5.32;;;3.65;;
51614;SDS011;37695;52.960;6.188;2023-04-01T05:18:41;4.75;;;3.58;;
51614;SDS011;37695;52.960;6.188;2023-04-01T05:21:08;5.13;;;3.97;;
51614;SDS011;37695;52.960;6.188;2023-04-01T05:23:35;5.88;;;3.60;;
51614;SDS011;37695;52.960;6.188;2023-04-01T05:26:04;5.70;;;3.88;;
51614;SDS011;37695;52.960;6.188;2023-04-01T05:28:31;7.32;;;3.97;;
51614;SDS011;37695;52.960;6.188;2023-04-01T05:30:58;6.13;;;4.57;;
51614;SDS011;37695;52.960;6.188;2023-04-01T05:33:25;6.03;;;4.30;;
51614;SDS011;37695;52.960;6.188;2023-04-01T05:35:51;7.68;;;4.82;;
51614;SDS011;37695;52.960;6.188;2023-04-01T05:38:16;6.53;;;5.07;;
51614;SDS011;37695;52.960;6.188;2023-04-01T05:40:42;5.82;;;4.35;;
51614;SDS011;37695;52.960;6.188;2023-04-01T05:43:07;7.47;;;4.40;;
51614;SDS011;37695;52.960;6.188;2023-04-01T05:45:33;5.75;;;4.63;;
51614;SDS011;37695;52.960;6.188;2023-04-01T05:47:59;6.30;;;4.53;;
51614;SDS011;37695;52.960;6.188;2023-04-01T05:50:25;7.07;;;4.45;;
51614;SDS011;37695;52.960;6.188;2023-04-01T05:52:51;6.38;;;4.47;;
51614;SDS011;37695;52.960;6.188;2023-04-01T05:55:16;5.97;;;4.57;;
51614;SDS011;37695;52.960;6.188;2023-04-01T05:57:42;7.35;;;5.45;;
51614;SDS011;37695;52.960;6.188;2023-04-01T06:00:10;5.93;;;4.28;;
51614;SDS011;37695;52.960;6.188;2023-04-01T06:02:36;6.32;;;4.65;;
51614;SDS011;37695;52.960;6.188;2023-04-01T06:05:20;5.85;;;4.18;;
51614;SDS011;37695;52.960;6.188;2023-04-01T06:07:48;7.03;;;4.82;;
51614;SDS011;37695;52.960;6.188;2023-04-01T06:10:20;6.13;;;4.28;;
51614;SDS011;37695;52.960;6.188;2023-04-01T06:12:54;6.30;;;4.30;;
51614;SDS011;37695;52.960;6.188;2023-04-01T06:15:37;5.60;;;3.85;;
51614;SDS011;37695;52.960;6.188;2023-04-01T06:20:57;7.85;;;3.70;;
51614;SDS011;37695;52.960;6.188;2023-04-01T06:23:35;6.68;;;3.90;;
51614;SDS011;37695;52.960;6.188;2023-04-01T06:26:12;8.07;;;4.20;;
51614;SDS011;37695;52.960;6.188;2023-04-01T06:42:20;4.95;;;3.55;;
51614;SDS011;37695;52.960;6.188;2023-04-01T06:47:38;4.95;;;3.47;;
51614;SDS011;37695;52.960;6.188;2023-04-01T06:55:41;4.03;;;2.97;;
51614;SDS011;37695;52.960;6.188;2023-04-01T06:58:19;4.53;;;2.78;;
51614;SDS011;37695;52.960;6.188;2023-04-01T07:00:48;2.88;;;2.28;;
51614;SDS011;37695;52.960;6.188;2023-04-01T07:06:51;3.63;;;2.38;;
51614;SDS011;37695;52.960;6.188;2023-04-01T07:09:13;2.83;;;1.85;;
51614;SDS011;37695;52.960;6.188;2023-04-01T07:11:43;2.30;;;1.85;;
51614;SDS011;37695;52.960;6.188;2023-04-01T07:16:47;1.90;;;1.50;;
51614;SDS011;37695;52.960;6.188;2023-04-01T07:19:26;1.33;;;1.23;;
51614;SDS011;37695;52.960;6.188;2023-04-01T07:25:22;2.15;;;1.55;;
51614;SDS011;37695;52.960;6.188;2023-04-01T07:28:00;3.10;;;2.05;;
51614;SDS011;37695;52.960;6.188;2023-04-01T07:30:33;6.45;;;2.45;;
51614;SDS011;37695;52.960;6.188;2023-04-01T07:36:32;4.85;;;3.30;;
51614;SDS011;37695;52.960;6.188;2023-04-01T07:50:15;6.63;;;5.10;;
51614;SDS011;37695;52.960;6.188;2023-04-01T07:53:02;5.97;;;4.60;;
51614;SDS011;37695;52.960;6.188;2023-04-01T07:55:46;7.18;;;5.53;;
51614;SDS011;37695;52.960;6.188;2023-04-01T07:58:25;7.43;;;5.95;;
51614;SDS011;37695;52.960;6.188;2023-04-01T08:01:18;8.25;;;5.78;;
51614;SDS011;37695;52.960;6.188;2023-04-01T08:06:50;7.90;;;6.33;;
51614;SDS011;37695;52.960;6.188;2023-04-01T08:09:26;8.02;;;5.78;;
51614;SDS011;37695;52.960;6.188;2023-04-01T08:15:04;8.13;;;6.45;;
51614;SDS011;37695;52.960;6.188;2023-04-01T08:18:11;7.97;;;5.80;;
51614;SDS011;37695;52.960;6.188;2023-04-01T08:21:02;7.15;;;5.65;;
51614;SDS011;37695;52.960;6.188;2023-04-01T08:23:33;6.80;;;5.78;;
51614;SDS011;37695;52.960;6.188;2023-04-01T08:31:45;7.47;;;6.03;;
51614;SDS011;37695;52.960;6.188;2023-04-01T08:34:27;7.73;;;6.30;;
51614;SDS011;37695;52.960;6.188;2023-04-01T08:37:02;9.85;;;6.78;;
51614;SDS011;37695;52.960;6.188;2023-04-01T08:39:36;8.07;;;6.70;;
51614;SDS011;37695;52.960;6.188;2023-04-01T08:42:09;8.80;;;7.28;;
51614;SDS011;37695;52.960;6.188;2023-04-01T08:45:02;9.50;;;7.60;;
51614;SDS011;37695;52.960;6.188;2023-04-01T08:50:50;9.73;;;7.50;;
51614;SDS011;37695;52.960;6.188;2023-04-01T08:56:37;9.98;;;8.23;;
51614;SDS011;37695;52.960;6.188;2023-04-01T09:01:45;10.82;;;8.95;;
51614;SDS011;37695;52.960;6.188;2023-04-01T09:07:03;11.02;;;8.38;;
51614;SDS011;37695;52.960;6.188;2023-04-01T09:09:54;10.25;;;8.65;;
51614;SDS011;37695;52.960;6.188;2023-04-01T09:21:22;10.00;;;8.55;;
51614;SDS011;37695;52.960;6.188;2023-04-01T09:34:51;10.68;;;8.75;;
51614;SDS011;37695;52.960;6.188;2023-04-01T09:37:38;11.32;;;8.50;;
51614;SDS011;37695;52.960;6.188;2023-04-01T09:40:35;12.10;;;8.68;;
51614;SDS011;37695;52.960;6.188;2023-04-01T09:56:57;11.30;;;8.02;;
51614;SDS011;37695;52.960;6.188;2023-04-01T10:05:04;11.52;;;8.05;;
51614;SDS011;37695;52.960;6.188;2023-04-01T10:07:51;10.68;;;8.27;;
51614;SDS011;37695;52.960;6.188;2023-04-01T10:16:16;10.40;;;7.63;;
51614;SDS011;37695;52.960;6.188;2023-04-01T10:19:09;10.95;;;7.88;;
51614;SDS011;37695;52.960;6.188;2023-04-01T10:30:35;6.35;;;4.80;;
51614;SDS011;37695;52.960;6.188;2023-04-01T10:42:03;5.00;;;3.72;;
51614;SDS011;37695;52.960;6.188;2023-04-01T10:45:00;4.88;;;3.58;;
51614;SDS011;37695;52.960;6.188;2023-04-01T10:50:42;4.65;;;3.25;;
51614;SDS011;37695;52.960;6.188;2023-04-01T10:56:36;5.50;;;3.22;;
51614;SDS011;37695;52.960;6.188;2023-04-01T11:19:08;4.03;;;3.00;;
51614;SDS011;37695;52.960;6.188;2023-04-01T11:21:59;4.55;;;3.25;;
51614;SDS011;37695;52.960;6.188;2023-04-01T11:24:50;4.28;;;3.08;;
51614;SDS011;37695;52.960;6.188;2023-04-01T11:27:56;4.53;;;2.90;;
51614;SDS011;37695;52.960;6.188;2023-04-01T11:33:31;4.28;;;3.03;;
51614;SDS011;37695;52.960;6.188;2023-04-01T11:44:21;4.47;;;3.00;;
51614;SDS011;37695;52.960;6.188;2023-04-01T11:52:25;3.30;;;2.47;;
51614;SDS011;37695;52.960;6.188;2023-04-01T12:03:26;3.33;;;2.28;;
51614;SDS011;37695;52.960;6.188;2023-04-01T12:14:47;3.05;;;2.15;;
51614;SDS011;37695;52.960;6.188;2023-04-01T12:17:36;3.55;;;2.30;;
51614;SDS011;37695;52.960;6.188;2023-04-01T12:20:22;2.78;;;2.05;;
51614;SDS011;37695;52.960;6.188;2023-04-01T12:23:19;3.83;;;2.28;;
51614;SDS011;37695;52.960;6.188;2023-04-01T12:34:07;4.15;;;2.30;;
51614;SDS011;37695;52.960;6.188;2023-04-01T12:42:30;3.00;;;2.13;;
51614;SDS011;37695;52.960;6.188;2023-04-01T12:53:25;3.58;;;2.40;;
51614;SDS011;37695;52.960;6.188;2023-04-01T12:56:04;2.92;;;1.98;;
51614;SDS011;37695;52.960;6.188;2023-04-01T12:59:22;2.90;;;2.08;;
51614;SDS011;37695;52.960;6.188;2023-04-01T13:04:44;2.90;;;2.00;;
51614;SDS011;37695;52.960;6.188;2023-04-01T13:15:55;3.58;;;2.28;;
51614;SDS011;37695;52.960;6.188;2023-04-01T13:27:14;2.17;;;1.70;;
51614;SDS011;37695;52.960;6.188;2023-04-01T13:36:17;2.53;;;1.70;;
51614;SDS011;37695;52.960;6.188;2023-04-01T13:38:53;2.15;;;1.70;;
51614;SDS011;37695;52.960;6.188;2023-04-01T13:44:22;1.98;;;1.65;;
51614;SDS011;37695;52.960;6.188;2023-04-01T13:55:49;2.50;;;1.90;;
51614;SDS011;37695;52.960;6.188;2023-04-01T14:01:30;2.28;;;1.70;;
51614;SDS011;37695;52.960;6.188;2023-04-01T14:12:39;1.88;;;1.50;;
51614;SDS011;37695;52.960;6.188;2023-04-01T14:18:23;2.40;;;1.50;;
51614;SDS011;37695;52.960;6.188;2023-04-01T14:21:17;2.13;;;1.60;;
51614;SDS011;37695;52.960;6.188;2023-04-01T14:26:50;2.25;;;1.50;;
51614;SDS011;37695;52.960;6.188;2023-04-01T14:41:44;1.92;;;1.38;;
51614;SDS011;37695;52.960;6.188;2023-04-01T14:44:33;2.35;;;1.48;;
51614;SDS011;37695;52.960;6.188;2023-04-01T14:47:23;1.80;;;1.45;;
51614;SDS011;37695;52.960;6.188;2023-04-01T14:58:12;2.70;;;1.40;;
51614;SDS011;37695;52.960;6.188;2023-04-01T15:04:08;1.55;;;1.20;;
51614;SDS011;37695;52.960;6.188;2023-04-01T15:06:33;2.33;;;1.48;;
51614;SDS011;37695;52.960;6.188;2023-04-01T15:09:42;2.58;;;1.58;;
51614;SDS011;37695;52.960;6.188;2023-04-01T15:15:03;2.45;;;1.52;;
51614;SDS011;37695;52.960;6.188;2023-04-01T15:26:07;1.52;;;1.10;;
51614;SDS011;37695;52.960;6.188;2023-04-01T15:28:44;2.17;;;1.45;;
51614;SDS011;37695;52.960;6.188;2023-04-01T15:36:56;1.65;;;1.40;;
51614;SDS011;37695;52.960;6.188;2023-04-01T15:39:37;1.85;;;1.35;;
51614;SDS011;37695;52.960;6.188;2023-04-01T15:48:02;1.80;;;1.38;;
51614;SDS011;37695;52.960;6.188;2023-04-01T15:53:23;2.95;;;1.58;;
51614;SDS011;37695;52.960;6.188;2023-04-01T15:59:02;2.58;;;1.45;;
51614;SDS011;37695;52.960;6.188;2023-04-01T16:01:39;2.30;;;1.55;;
51614;SDS011;37695;52.960;6.188;2023-04-01T16:07:05;3.15;;;1.50;;
51614;SDS011;37695;52.960;6.188;2023-04-01T16:28:55;1.92;;;1.65;;
51614;SDS011;37695;52.960;6.188;2023-04-01T16:31:48;2.95;;;1.80;;
51614;SDS011;37695;52.960;6.188;2023-04-01T16:34:26;3.53;;;2.03;;
51614;SDS011;37695;52.960;6.188;2023-04-01T16:43:19;3.97;;;2.10;;
51614;SDS011;37695;52.960;6.188;2023-04-01T16:46:12;3.28;;;2.20;;
51614;SDS011;37695;52.960;6.188;2023-04-01T16:51:47;3.42;;;2.30;;
51614;SDS011;37695;52.960;6.188;2023-04-01T16:57:23;3.90;;;2.50;;
51614;SDS011;37695;52.960;6.188;2023-04-01T17:00:14;4.60;;;2.17;;
51614;SDS011;37695;52.960;6.188;2023-04-01T17:10:47;5.97;;;3.00;;
51614;SDS011;37695;52.960;6.188;2023-04-01T17:16:13;5.68;;;3.10;;
51614;SDS011;37695;52.960;6.188;2023-04-01T17:24:29;7.47;;;3.13;;
51614;SDS011;37695;52.960;6.188;2023-04-01T17:27:11;3.60;;;2.33;;
51614;SDS011;37695;52.960;6.188;2023-04-01T17:35:54;5.35;;;2.80;;
51614;SDS011;37695;52.960;6.188;2023-04-01T17:38:38;8.35;;;3.92;;
51614;SDS011;37695;52.960;6.188;2023-04-01T17:41:22;5.20;;;3.22;;
51614;SDS011;37695;52.960;6.188;2023-04-01T17:44:23;7.38;;;3.20;;
51614;SDS011;37695;52.960;6.188;2023-04-01T17:52:33;6.65;;;3.08;;
51614;SDS011;37695;52.960;6.188;2023-04-01T17:57:43;5.20;;;3.13;;
51614;SDS011;37695;52.960;6.188;2023-04-01T18:08:33;5.32;;;3.00;;
51614;SDS011;37695;52.960;6.188;2023-04-01T18:11:34;5.85;;;3.38;;
51614;SDS011;37695;52.960;6.188;2023-04-01T18:14:19;5.97;;;2.80;;
51614;SDS011;37695;52.960;6.188;2023-04-01T18:16:59;5.50;;;3.10;;
51614;SDS011;37695;52.960;6.188;2023-04-01T18:19:46;6.53;;;3.38;;
51614;SDS011;37695;52.960;6.188;2023-04-01T18:22:23;6.18;;;3.50;;
51614;SDS011;37695;52.960;6.188;2023-04-01T18:24:56;5.60;;;3.75;;
51614;SDS011;37695;52.960;6.188;2023-04-01T18:27:30;5.82;;;3.03;;
51614;SDS011;37695;52.960;6.188;2023-04-01T18:35:34;5.40;;;3.35;;
51614;SDS011;37695;52.960;6.188;2023-04-01T18:38:31;7.00;;;3.10;;
51614;SDS011;37695;52.960;6.188;2023-04-01T18:41:10;6.57;;;3.00;;
51614;SDS011;37695;52.960;6.188;2023-04-01T18:43:43;5.80;;;2.97;;
51614;SDS011;37695;52.960;6.188;2023-04-01T18:54:29;5.07;;;3.00;;
51614;SDS011;37695;52.960;6.188;2023-04-01T18:57:16;4.20;;;2.78;;
51614;SDS011;37695;52.960;6.188;2023-04-01T18:59:54;6.25;;;3.22;;
51614;SDS011;37695;52.960;6.188;2023-04-01T19:02:30;6.40;;;3.58;;
51614;SDS011;37695;52.960;6.188;2023-04-01T19:05:07;6.15;;;3.47;;
51614;SDS011;37695;52.960;6.188;2023-04-01T19:07:53;5.47;;;3.28;;
51614;SDS011;37695;52.960;6.188;2023-04-01T19:13:28;7.30;;;3.17;;
51614;SDS011;37695;52.960;6.188;2023-04-01T19:16:12;5.53;;;3.30;;
51614;SDS011;37695;52.960;6.188;2023-04-01T19:24:32;9.05;;;3.88;;
51614;SDS011;37695;52.960;6.188;2023-04-01T19:27:37;7.65;;;3.88;;
51614;SDS011;37695;52.960;6.188;2023-04-01T19:30:17;5.93;;;3.72;;
51614;SDS011;37695;52.960;6.188;2023-04-01T19:33:07;6.80;;;3.85;;
51614;SDS011;37695;52.960;6.188;2023-04-01T19:44:30;6.85;;;4.45;;
51614;SDS011;37695;52.960;6.188;2023-04-01T19:47:22;8.60;;;4.47;;
51614;SDS011;37695;52.960;6.188;2023-04-01T19:53:01;6.13;;;3.85;;
51614;SDS011;37695;52.960;6.188;2023-04-01T19:56:05;6.93;;;3.70;;
51614;SDS011;37695;52.960;6.188;2023-04-01T20:01:13;6.45;;;3.97;;
51614;SDS011;37695;52.960;6.188;2023-04-01T20:03:54;8.48;;;3.88;;
51614;SDS011;37695;52.960;6.188;2023-04-01T20:06:38;7.85;;;3.95;;
51614;SDS011;37695;52.960;6.188;2023-04-01T20:15:20;11.02;;;4.60;;
51614;SDS011;37695;52.960;6.188;2023-04-01T20:17:46;8.57;;;4.20;;
51614;SDS011;37695;52.960;6.188;2023-04-01T20:20:20;9.27;;;5.00;;
51614;SDS011;37695;52.960;6.188;2023-04-01T20:25:33;8.57;;;4.90;;
51614;SDS011;37695;52.960;6.188;2023-04-01T20:28:37;9.02;;;4.65;;
51614;SDS011;37695;52.960;6.188;2023-04-01T20:31:15;7.63;;;4.90;;
51614;SDS011;37695;52.960;6.188;2023-04-01T20:40:17;11.25;;;4.78;;
51614;SDS011;37695;52.960;6.188;2023-04-01T20:49:14;7.07;;;4.18;;
51614;SDS011;37695;52.960;6.188;2023-04-01T20:51:46;11.20;;;5.10;;
51614;SDS011;37695;52.960;6.188;2023-04-01T20:54:27;7.20;;;4.40;;
51614;SDS011;37695;52.960;6.188;2023-04-01T20:57:19;8.15;;;3.90;;
51614;SDS011;37695;52.960;6.188;2023-04-01T21:07:50;7.30;;;4.10;;
51614;SDS011;37695;52.960;6.188;2023-04-01T21:10:56;7.43;;;3.95;;
51614;SDS011;37695;52.960;6.188;2023-04-01T21:27:07;9.27;;;4.28;;
51614;SDS011;37695;52.960;6.188;2023-04-01T21:36:02;9.63;;;3.58;;
51614;SDS011;37695;52.960;6.188;2023-04-01T21:41:48;5.75;;;3.83;;
51614;SDS011;37695;52.960;6.188;2023-04-01T21:44:41;8.55;;;3.70;;
51614;SDS011;37695;52.960;6.188;2023-04-01T21:52:51;8.57;;;3.70;;
51614;SDS011;37695;52.960;6.188;2023-04-01T21:58:32;7.32;;;3.65;;
51614;SDS011;37695;52.960;6.188;2023-04-01T22:04:28;8.77;;;3.78;;
51614;SDS011;37695;52.960;6.188;2023-04-01T22:07:16;6.53;;;3.70;;
51614;SDS011;37695;52.960;6.188;2023-04-01T22:12:34;5.28;;;3.08;;
51614;SDS011;37695;52.960;6.188;2023-04-01T22:15:09;6.35;;;3.28;;
51614;SDS011;37695;52.960;6.188;2023-04-01T22:23:59;8.20;;;3.55;;
51614;SDS011;37695;52.960;6.188;2023-04-01T22:26:31;6.82;;;3.85;;
51614;SDS011;37695;52.960;6.188;2023-04-01T22:29:26;9.57;;;3.85;;
51614;SDS011;37695;52.960;6.188;2023-04-01T22:34:37;7.75;;;3.55;;
51614;SDS011;37695;52.960;6.188;2023-04-01T22:47:54;10.48;;;4.65;;
51614;SDS011;37695;52.960;6.188;2023-04-01T22:50:25;7.43;;;3.70;;
51614;SDS011;37695;52.960;6.188;2023-04-01T22:52:59;6.22;;;3.00;;
51614;SDS011;37695;52.960;6.188;2023-04-01T22:55:34;8.05;;;3.67;;
51614;SDS011;37695;52.960;6.188;2023-04-01T22:58:07;12.95;;;4.03;;
51614;SDS011;37695;52.960;6.188;2023-04-01T23:00:52;6.35;;;3.50;;
51614;SDS011;37695;52.960;6.188;2023-04-01T23:03:33;8.30;;;4.18;;
51614;SDS011;37695;52.960;6.188;2023-04-01T23:06:02;5.22;;;3.42;;
51614;SDS011;37695;52.960;6.188;2023-04-01T23:11:22;7.05;;;3.53;;
51614;SDS011;37695;52.960;6.188;2023-04-01T23:14:04;8.07;;;3.53;;
51614;SDS011;37695;52.960;6.188;2023-04-01T23:16:43;7.68;;;3.35;;
51614;SDS011;37695;52.960;6.188;2023-04-01T23:19:20;6.18;;;3.25;;
51614;SDS011;37695;52.960;6.188;2023-04-01T23:24:55;7.35;;;3.40;;
51614;SDS011;37695;52.960;6.188;2023-04-01T23:30:03;6.35;;;3.60;;
51614;SDS011;37695;52.960;6.188;2023-04-01T23:32:49;6.22;;;2.63;;
51614;SDS011;37695;52.960;6.188;2023-04-01T23:35:15;9.48;;;4.07;;
51614;SDS011;37695;52.960;6.188;2023-04-01T23:37:41;6.45;;;3.10;;
51614;SDS011;37695;52.960;6.188;2023-04-01T23:40:10;5.50;;;2.90;;
51614;SDS011;37695;52.960;6.188;2023-04-01T23:42:38;7.15;;;3.17;;
51614;SDS011;37695;52.960;6.188;2023-04-01T23:45:13;6.40;;;3.25;;
51614;SDS011;37695;52.960;6.188;2023-04-01T23:47:47;6.80;;;3.45;;
51614;SDS011;37695;52.960;6.188;2023-04-01T23:50:17;5.90;;;3.50;;
51614;SDS011;37695;52.960;6.188;2023-04-01T23:52:46;5.88;;;3.15;;
51614;SDS011;37695;52.960;6.188;2023-04-01T23:55:25;5.68;;;3.33;;
51614;SDS011;37695;52.960;6.188;2023-04-01T23:58:06;5.85;;;3.60;;
